Time;durP1;ratioP1;P1;durP2;ratioP2;P2;SDS_P1;SDS_P2;PMS_P1;PMS_P2;Temp;Humidity;BMP_temperature;BMP_pressure;BME280_temperature;BME280_humidity;BME280_pressure;Samples;Min_cycle;Max_cycle;Signal;HPM_P1;HPM_P2
2023/08/04 00:00:15;;;;;;;5.23;1.97;;;14.50;99.90;;;;;;5377340;23;658125;-71
2023/08/04 00:03:04;;;;;;;6.70;1.97;;;14.50;99.90;;;;;;5355819;23;656917;-70
2023/08/04 00:05:51;;;;;;;6.60;1.73;;;14.50;99.90;;;;;;5375861;23;656375;-72
2023/08/04 00:08:38;;;;;;;6.53;1.60;;;14.60;99.90;;;;;;5353303;23;656632;-73
2023/08/04 00:11:25;;;;;;;5.30;1.83;;;14.70;99.90;;;;;;5375681;23;657445;-71
2023/08/04 00:14:13;;;;;;;6.73;1.83;;;14.90;99.90;;;;;;5354676;23;656953;-72
2023/08/04 00:17:00;;;;;;;4.67;1.90;;;14.90;99.90;;;;;;5377167;23;657406;-70
2023/08/04 00:19:49;;;;;;;3.73;1.70;;;15.00;99.90;;;;;;5354330;23;656849;-72
2023/08/04 00:22:36;;;;;;;2.70;1.43;;;15.00;99.90;;;;;;5372791;23;656276;-71
2023/08/04 00:25:23;;;;;;;3.87;1.70;;;15.00;99.90;;;;;;5353584;23;656485;-72
2023/08/04 00:28:11;;;;;;;6.40;1.83;;;15.00;99.90;;;;;;5376119;23;657650;-72
2023/08/04 00:30:58;;;;;;;4.03;1.90;;;14.90;99.90;;;;;;5353471;23;656383;-71
2023/08/04 00:33:45;;;;;;;9.90;1.70;;;14.90;99.90;;;;;;5374100;23;658022;-71
2023/08/04 00:36:34;;;;;;;4.27;2.10;;;14.90;99.90;;;;;;5365303;23;656222;-72
2023/08/04 00:39:21;;;;;;;3.80;1.60;;;14.90;99.90;;;;;;5375746;23;656959;-72
2023/08/04 00:42:08;;;;;;;6.53;2.17;;;14.90;99.90;;;;;;5352755;23;657585;-72
2023/08/04 00:44:56;;;;;;;4.80;1.83;;;15.00;99.90;;;;;;5374991;23;658146;-72
2023/08/04 00:47:43;;;;;;;3.70;1.67;;;15.00;99.90;;;;;;5352955;23;656724;-73
2023/08/04 00:50:30;;;;;;;4.97;2.03;;;15.00;99.90;;;;;;5375612;23;658121;-71
2023/08/04 00:53:19;;;;;;;6.70;2.07;;;15.10;99.90;;;;;;5353066;23;656995;-72
2023/08/04 00:56:07;;;;;;;5.63;1.93;;;15.10;99.90;;;;;;5375993;23;656569;-71
2023/08/04 00:58:54;;;;;;;6.47;2.07;;;15.10;99.90;;;;;;5353199;23;656779;-72
2023/08/04 01:01:41;;;;;;;3.50;1.90;;;15.10;99.90;;;;;;5375903;23;656846;-72
2023/08/04 01:04:28;;;;;;;8.40;2.27;;;15.10;99.90;;;;;;5353850;23;656820;-72
2023/08/04 01:07:19;;;;;;;5.13;2.00;;;15.10;99.90;;;;;;5380013;23;656204;-72
2023/08/04 01:10:12;;;;;;;3.57;1.70;;;15.10;99.90;;;;;;5353976;23;657372;-71
2023/08/04 01:13:01;;;;;;;4.53;1.90;;;15.20;99.90;;;;;;5321424;23;656872;-71
2023/08/04 01:15:49;;;;;;;6.93;2.73;;;15.20;99.90;;;;;;5353408;23;656867;-71
2023/08/04 01:18:36;;;;;;;6.13;2.20;;;15.20;99.90;;;;;;5377092;23;657765;-71
2023/08/04 01:21:24;;;;;;;10.17;1.87;;;15.20;99.90;;;;;;5354648;23;656373;-71
2023/08/04 01:24:12;;;;;;;10.40;2.37;;;15.10;99.90;;;;;;5375938;23;657989;-72
2023/08/04 01:26:59;;;;;;;5.23;2.27;;;15.10;99.90;;;;;;5351957;23;658134;-71
2023/08/04 01:29:46;;;;;;;7.80;2.70;;;15.20;99.90;;;;;;5377144;23;656782;-71
2023/08/04 01:32:33;;;;;;;4.40;2.20;;;15.20;99.90;;;;;;5351061;23;656566;-71
2023/08/04 01:35:20;;;;;;;9.17;2.60;;;15.30;99.90;;;;;;5377486;23;657232;-72
2023/08/04 01:38:09;;;;;;;4.77;1.67;;;15.30;99.90;;;;;;5351813;23;657079;-72
2023/08/04 01:40:56;;;;;;;9.23;2.20;;;15.20;99.90;;;;;;5374336;23;656363;-71
2023/08/04 01:43:43;;;;;;;6.67;2.23;;;15.20;99.90;;;;;;5353005;23;657330;-71
2023/08/04 01:46:31;;;;;;;7.80;2.50;;;15.20;99.90;;;;;;5374540;23;657577;-71
2023/08/04 01:49:18;;;;;;;6.10;2.33;;;15.20;99.90;;;;;;5351972;23;656414;-71
2023/08/04 01:52:06;;;;;;;7.90;2.10;;;15.20;99.90;;;;;;5374941;23;657471;-71
2023/08/04 01:54:54;;;;;;;9.10;2.23;;;15.10;99.90;;;;;;5353115;23;656870;-71
2023/08/04 01:57:41;;;;;;;9.15;2.28;;;15.10;99.90;;;;;;5375349;23;656752;-71
2023/08/04 02:00:29;;;;;;;7.10;2.07;;;15.10;99.90;;;;;;5352076;23;656441;-71
2023/08/04 02:03:16;;;;;;;5.83;2.20;;;15.10;99.90;;;;;;5374866;23;657164;-72
2023/08/04 02:06:04;;;;;;;5.50;2.10;;;15.10;99.90;;;;;;5350464;23;656347;-71
2023/08/04 02:08:51;;;;;;;8.23;2.40;;;15.10;99.90;;;;;;5374884;23;657347;-72
2023/08/04 02:11:39;;;;;;;9.33;2.30;;;15.10;99.90;;;;;;5352216;23;656370;-71
2023/08/04 02:14:27;;;;;;;7.37;2.17;;;15.10;99.90;;;;;;5375195;23;656296;-71
2023/08/04 02:17:16;;;;;;;11.87;2.53;;;15.20;99.90;;;;;;5347933;23;657137;-71
2023/08/04 02:20:03;;;;;;;4.83;2.17;;;15.10;99.90;;;;;;5351814;23;658061;-71
2023/08/04 02:22:50;;;;;;;4.30;2.00;;;15.20;99.90;;;;;;5380707;23;656950;-72
2023/08/04 02:25:37;;;;;;;4.27;1.97;;;15.10;99.90;;;;;;5353367;23;656592;-71
2023/08/04 02:28:26;;;;;;;6.70;2.70;;;15.10;99.90;;;;;;5375882;23;657927;-71
2023/08/04 02:31:13;;;;;;;6.60;2.07;;;15.10;99.90;;;;;;5352167;23;656309;-71
2023/08/04 02:34:00;;;;;;;6.33;2.23;;;15.10;99.90;;;;;;5376158;23;657188;-72
2023/08/04 02:36:47;;;;;;;7.88;2.50;;;15.10;99.90;;;;;;5353360;23;656330;-71
2023/08/04 02:39:35;;;;;;;7.17;2.77;;;15.00;99.90;;;;;;5380239;23;656866;-71
2023/08/04 02:42:22;;;;;;;8.03;2.33;;;15.00;99.90;;;;;;5368055;23;656746;-71
2023/08/04 02:45:12;;;;;;;9.10;2.30;;;15.00;99.90;;;;;;5375797;23;657530;-71
2023/08/04 02:47:59;;;;;;;4.17;2.60;;;15.00;99.90;;;;;;5352614;23;656420;-71
2023/08/04 02:50:46;;;;;;;9.77;3.10;;;15.00;99.90;;;;;;5375660;23;656576;-71
2023/08/04 02:53:34;;;;;;;6.03;3.00;;;15.00;99.90;;;;;;5351910;23;656314;-72
2023/08/04 02:56:21;;;;;;;13.20;2.73;;;15.00;99.90;;;;;;5377189;23;656121;-71
2023/08/04 02:59:08;;;;;;;4.70;2.90;;;14.90;99.90;;;;;;5352912;23;657595;-71
2023/08/04 03:01:57;;;;;;;8.23;2.80;;;14.90;99.90;;;;;;5376480;23;657461;-71
2023/08/04 03:04:44;;;;;;;8.93;2.10;;;14.90;99.90;;;;;;5348879;23;657763;-71
2023/08/04 03:07:32;;;;;;;8.33;2.27;;;14.80;99.90;;;;;;5375550;23;656181;-71
2023/08/04 03:10:19;;;;;;;6.87;2.40;;;14.80;99.90;;;;;;5353230;23;657164;-72
2023/08/04 03:13:07;;;;;;;5.43;2.27;;;14.80;99.90;;;;;;5376451;23;656843;-71
2023/08/04 03:15:57;;;;;;;8.00;2.60;;;14.90;99.90;;;;;;5354095;23;657611;-71
2023/08/04 03:18:46;;;;;;;9.17;2.90;;;14.90;99.90;;;;;;5349391;23;657476;-71
2023/08/04 03:21:34;;;;;;;10.20;2.63;;;14.90;99.90;;;;;;5354458;23;656915;-71
2023/08/04 03:24:21;;;;;;;7.63;2.87;;;14.90;99.90;;;;;;5375544;23;657579;-71
2023/08/04 03:27:09;;;;;;;4.40;2.37;;;14.90;99.90;;;;;;5351031;23;656579;-71
2023/08/04 03:29:56;;;;;;;4.87;2.30;;;14.90;99.90;;;;;;5377264;23;657429;-71
2023/08/04 03:32:43;;;;;;;5.47;2.40;;;14.90;99.90;;;;;;5354599;23;657349;-71
2023/08/04 03:35:32;;;;;;;13.10;2.67;;;14.90;99.90;;;;;;5380239;23;658052;-71
2023/08/04 03:38:19;;;;;;;13.50;2.70;;;14.90;99.90;;;;;;5351010;23;657869;-71
2023/08/04 03:41:06;;;;;;;9.93;3.00;;;14.80;99.90;;;;;;5375852;23;657958;-71
2023/08/04 03:43:53;;;;;;;7.67;2.07;;;14.80;99.90;;;;;;5352538;23;656525;-71
2023/08/04 03:46:40;;;;;;;10.93;2.40;;;14.90;99.90;;;;;;5375048;23;657639;-71
2023/08/04 03:49:28;;;;;;;6.67;2.53;;;14.90;99.90;;;;;;5350592;23;657960;-71
2023/08/04 03:52:16;;;;;;;6.73;2.30;;;15.00;99.90;;;;;;5375724;23;657896;-71
2023/08/04 03:55:04;;;;;;;3.92;2.20;;;15.00;99.90;;;;;;5353171;23;657187;-71
2023/08/04 03:57:52;;;;;;;8.97;2.93;;;15.10;99.90;;;;;;5381769;23;656853;-71
2023/08/04 04:00:39;;;;;;;3.97;2.27;;;15.10;99.90;;;;;;5353033;23;656491;-71
2023/08/04 04:03:26;;;;;;;9.30;2.70;;;15.10;99.90;;;;;;5375760;23;655894;-71
2023/08/04 04:06:13;;;;;;;9.73;2.97;;;15.20;99.90;;;;;;5352668;23;656676;-71
2023/08/04 04:09:03;;;;;;;5.90;2.70;;;15.20;99.90;;;;;;5382041;23;658358;-71
2023/08/04 04:11:51;;;;;;;8.27;2.90;;;15.20;99.90;;;;;;5353941;23;656430;-71
2023/08/04 04:14:38;;;;;;;10.87;2.60;;;15.20;99.90;;;;;;5353863;23;656793;-71
2023/08/04 04:17:25;;;;;;;5.77;2.40;;;15.20;99.90;;;;;;5372960;23;658656;-71
2023/08/04 04:20:12;;;;;;;5.50;2.23;;;15.10;99.90;;;;;;5362641;23;656279;-71
2023/08/04 04:23:00;;;;;;;3.67;2.33;;;15.10;99.90;;;;;;5376475;23;657405;-71
2023/08/04 04:25:50;;;;;;;6.70;2.20;;;15.20;99.90;;;;;;5371109;23;656456;-71
2023/08/04 04:28:37;;;;;;;5.50;2.60;;;15.20;99.90;;;;;;5376369;23;656549;-71
2023/08/04 04:31:25;;;;;;;5.55;2.13;;;15.20;99.90;;;;;;5381791;23;657518;-71
2023/08/04 04:34:12;;;;;;;3.87;1.97;;;15.20;99.90;;;;;;5376607;23;656330;-71
2023/08/04 04:36:59;;;;;;;6.47;2.30;;;15.30;99.90;;;;;;5349329;23;658072;-71
2023/08/04 04:39:47;;;;;;;13.77;2.40;;;15.30;99.90;;;;;;5376492;23;657256;-71
2023/08/04 04:42:35;;;;;;;5.13;2.60;;;15.40;99.90;;;;;;5347553;23;658346;-71
2023/08/04 04:45:23;;;;;;;4.27;2.20;;;15.50;99.90;;;;;;5354097;23;656703;-71
2023/08/04 04:48:10;;;;;;;7.60;2.20;;;15.50;99.90;;;;;;5377010;23;657694;-71
2023/08/04 04:50:57;;;;;;;4.33;2.30;;;15.60;99.90;;;;;;5371478;23;656084;-71
2023/08/04 04:53:45;;;;;;;10.00;2.20;;;15.60;99.90;;;;;;5381502;23;657264;-71
2023/08/04 04:56:32;;;;;;;6.80;3.00;;;15.60;99.90;;;;;;5373377;23;657317;-71
2023/08/04 04:59:21;;;;;;;7.15;3.20;;;15.70;99.90;;;;;;5352702;23;657041;-71
2023/08/04 05:02:08;;;;;;;5.60;2.37;;;15.80;99.90;;;;;;5352773;23;656790;-71
2023/08/04 05:04:55;;;;;;;4.00;2.30;;;15.80;99.90;;;;;;5381098;23;657002;-71
2023/08/04 05:07:43;;;;;;;8.43;3.10;;;15.90;99.90;;;;;;5353387;23;656407;-71
2023/08/04 05:10:30;;;;;;;6.97;2.70;;;16.00;99.90;;;;;;5375235;23;657489;-71
2023/08/04 05:13:17;;;;;;;6.13;2.33;;;16.10;99.90;;;;;;5369328;23;656522;-71
2023/08/04 05:16:06;;;;;;;4.10;1.80;;;16.10;99.90;;;;;;5380249;23;657539;-71
2023/08/04 05:18:53;;;;;;;9.80;2.47;;;16.00;99.90;;;;;;5351730;23;656923;-71
2023/08/04 05:21:40;;;;;;;13.47;1.70;;;16.00;99.90;;;;;;5376123;23;656528;-71
2023/08/04 05:24:28;;;;;;;8.00;2.07;;;16.00;99.90;;;;;;5350952;23;657962;-71
2023/08/04 05:27:15;;;;;;;5.83;1.97;;;16.20;99.90;;;;;;5375905;23;657649;-71
2023/08/04 05:30:03;;;;;;;4.67;2.40;;;16.30;99.90;;;;;;5363805;23;656884;-71
2023/08/04 05:32:51;;;;;;;7.90;2.30;;;16.30;99.90;;;;;;5381124;23;657297;-71
2023/08/04 05:35:40;;;;;;;9.00;2.53;;;16.40;99.90;;;;;;5347979;23;656840;-71
2023/08/04 05:38:28;;;;;;;4.27;2.37;;;16.40;99.90;;;;;;5365888;23;656548;-71
2023/08/04 05:41:15;;;;;;;8.33;2.93;;;16.40;99.90;;;;;;5380896;23;657395;-71
2023/08/04 05:44:02;;;;;;;7.88;2.83;;;16.40;99.90;;;;;;5358594;23;656685;-71
2023/08/04 05:46:50;;;;;;;5.33;2.50;;;16.40;99.90;;;;;;5375444;23;657486;-72
2023/08/04 05:49:39;;;;;;;10.17;2.83;;;16.30;99.90;;;;;;5375019;23;656778;-71
2023/08/04 05:52:26;;;;;;;6.20;2.40;;;16.40;99.90;;;;;;5374133;23;657736;-71
2023/08/04 05:55:13;;;;;;;12.17;2.90;;;16.50;99.90;;;;;;5352146;23;656417;-71
2023/08/04 05:58:00;;;;;;;9.07;3.20;;;16.50;99.90;;;;;;5374769;23;658060;-71
2023/08/04 06:00:47;;;;;;;6.20;3.08;;;16.60;99.90;;;;;;5353102;23;656306;-71
2023/08/04 06:03:35;;;;;;;6.00;2.10;;;16.70;99.90;;;;;;5375666;23;657676;-71
2023/08/04 06:06:24;;;;;;;6.53;2.17;;;16.70;99.90;;;;;;5375878;23;656424;-71
2023/08/04 06:09:11;;;;;;;3.43;1.90;;;16.70;99.90;;;;;;5376900;23;656553;-71
2023/08/04 06:11:58;;;;;;;4.30;1.90;;;16.80;99.90;;;;;;5353280;23;657068;-71
2023/08/04 06:14:46;;;;;;;8.93;1.80;;;16.90;99.90;;;;;;5380436;23;657055;-71
2023/08/04 06:17:34;;;;;;;3.70;1.80;;;17.10;99.90;;;;;;5350553;23;656334;-71
2023/08/04 06:20:21;;;;;;;3.23;1.30;;;17.20;99.90;;;;;;5374720;23;656623;-71
2023/08/04 06:23:11;;;;;;;4.97;1.60;;;17.40;99.90;;;;;;5353180;23;656820;-71
2023/08/04 06:25:58;;;;;;;7.17;2.97;;;17.60;99.90;;;;;;5351928;23;656651;-71
2023/08/04 06:28:45;;;;;;;5.47;2.60;;;17.60;99.90;;;;;;5374644;23;656353;-71
2023/08/04 06:31:32;;;;;;;6.77;2.83;;;17.70;99.90;;;;;;5362856;23;656955;-71
2023/08/04 06:34:20;;;;;;;7.70;2.80;;;17.70;99.90;;;;;;5381485;23;656086;-71
2023/08/04 06:37:07;;;;;;;7.97;2.80;;;17.70;99.90;;;;;;5366935;23;657315;-71
2023/08/04 06:39:56;;;;;;;11.47;3.00;;;17.80;99.90;;;;;;5376758;23;657622;-71
2023/08/04 06:42:43;;;;;;;6.03;2.70;;;17.80;99.90;;;;;;5348341;23;657542;-71
2023/08/04 06:45:30;;;;;;;5.90;2.97;;;17.80;99.90;;;;;;5376435;23;657523;-71
2023/08/04 06:48:17;;;;;;;5.23;3.03;;;17.90;99.90;;;;;;5353565;23;656523;-71
2023/08/04 06:51:05;;;;;;;6.50;3.10;;;18.00;99.90;;;;;;5380955;23;656808;-71
2023/08/04 06:53:53;;;;;;;5.57;2.63;;;18.10;99.90;;;;;;5372353;23;656589;-70
2023/08/04 06:56:41;;;;;;;6.73;3.07;;;18.20;99.90;;;;;;5376327;23;657084;-71
2023/08/04 06:59:29;;;;;;;8.53;2.80;;;18.20;99.90;;;;;;5353179;23;656795;-71
2023/08/04 07:02:16;;;;;;;7.07;2.80;;;18.30;99.90;;;;;;5375399;23;656779;-71
2023/08/04 07:05:04;;;;;;;7.07;2.90;;;18.40;99.90;;;;;;5354622;23;657446;-71
2023/08/04 07:07:51;;;;;;;8.93;2.70;;;18.40;99.90;;;;;;5376970;23;656717;-71
2023/08/04 07:10:39;;;;;;;6.13;2.40;;;18.40;99.90;;;;;;5354146;23;656608;-70
2023/08/04 07:13:29;;;;;;;6.53;2.43;;;18.40;99.90;;;;;;5376455;23;656158;-71
2023/08/04 07:16:17;;;;;;;11.00;2.50;;;18.40;99.90;;;;;;5348516;23;656302;-71
2023/08/04 07:19:04;;;;;;;6.87;2.83;;;18.40;99.90;;;;;;5352773;23;657470;-71
2023/08/04 07:21:52;;;;;;;9.03;2.77;;;18.40;99.90;;;;;;5377078;23;656615;-71
2023/08/04 07:24:39;;;;;;;8.70;2.43;;;18.40;99.90;;;;;;5353222;23;656524;-71
2023/08/04 07:27:26;;;;;;;6.37;2.57;;;18.40;99.90;;;;;;5375986;23;655990;-71
2023/08/04 07:30:15;;;;;;;9.00;2.90;;;18.40;99.90;;;;;;5353943;23;656358;-70
2023/08/04 07:33:04;;;;;;;6.73;2.60;;;18.40;99.90;;;;;;5353016;23;656461;-73
2023/08/04 07:35:54;;;;;;;8.63;3.60;;;18.20;99.90;;;;;;5376290;23;656364;-72
2023/08/04 07:38:42;;;;;;;7.00;2.93;;;18.20;99.90;;;;;;5353809;23;656968;-72
2023/08/04 07:41:29;;;;;;;8.23;2.80;;;18.30;99.90;;;;;;5353892;23;657514;-72
2023/08/04 07:44:16;;;;;;;7.87;2.80;;;18.40;99.90;;;;;;5373791;23;656191;-71
2023/08/04 07:47:05;;;;;;;5.17;2.60;;;18.40;99.90;;;;;;5352107;23;656381;-72
2023/08/04 07:49:52;;;;;;;7.27;3.07;;;18.30;99.90;;;;;;5356034;23;656209;-72
2023/08/04 07:52:40;;;;;;;11.47;4.43;;;18.40;99.90;;;;;;5375891;23;657046;-72
2023/08/04 07:55:27;;;;;;;15.23;6.33;;;18.40;99.90;;;;;;5371661;23;657595;-72
2023/08/04 07:58:15;;;;;;;15.27;5.90;;;18.40;99.90;;;;;;5379013;23;658575;-72
2023/08/04 08:01:04;;;;;;;11.27;4.97;;;18.50;99.90;;;;;;5369217;23;657803;-72
2023/08/04 08:03:52;;;;;;;9.20;4.90;;;18.50;99.90;;;;;;5375730;23;657386;-72
2023/08/04 08:06:40;;;;;;;12.67;3.77;;;18.60;99.90;;;;;;5352733;23;657504;-72
2023/08/04 08:09:27;;;;;;;14.13;4.63;;;18.70;99.90;;;;;;5375841;23;657605;-72
2023/08/04 08:12:15;;;;;;;12.47;4.43;;;18.90;99.90;;;;;;5379734;23;657759;-72
2023/08/04 08:15:05;;;;;;;7.30;4.03;;;18.90;99.90;;;;;;5369631;23;658463;-72
2023/08/04 08:17:52;;;;;;;8.90;4.07;;;18.90;99.90;;;;;;5376129;23;656635;-72
2023/08/04 08:20:41;;;;;;;14.20;4.10;;;19.10;99.90;;;;;;5353684;23;656468;-72
2023/08/04 08:23:29;;;;;;;10.03;3.93;;;19.10;99.90;;;;;;5351541;23;657550;-72
2023/08/04 08:26:16;;;;;;;7.77;3.70;;;19.30;99.90;;;;;;5374179;23;658084;-72
2023/08/04 08:29:04;;;;;;;7.67;3.30;;;19.40;99.90;;;;;;5353698;23;656677;-72
2023/08/04 08:31:51;;;;;;;11.23;3.83;;;19.50;99.90;;;;;;5375997;23;656635;-72
2023/08/04 08:34:39;;;;;;;7.90;3.00;;;19.60;99.90;;;;;;5346031;23;658000;-72
2023/08/04 08:37:27;;;;;;;10.57;4.23;;;19.80;99.90;;;;;;5375512;23;656783;-71
2023/08/04 08:40:15;;;;;;;10.83;3.73;;;19.90;99.90;;;;;;5350229;23;658592;-72
2023/08/04 08:43:02;;;;;;;17.47;3.40;;;20.10;99.90;;;;;;5373267;23;657415;-72
2023/08/04 08:45:50;;;;;;;8.93;3.27;;;20.20;99.90;;;;;;5374744;23;658582;-71
2023/08/04 08:48:38;;;;;;;8.67;2.97;;;20.40;99.90;;;;;;5358902;23;656478;-72
2023/08/04 08:51:26;;;;;;;5.70;2.47;;;20.30;99.90;;;;;;5377238;23;656883;-71
2023/08/04 08:54:16;;;;;;;5.10;2.17;;;20.40;99.90;;;;;;5347755;23;657140;-72
2023/08/04 08:57:04;;;;;;;9.17;3.40;;;20.60;99.90;;;;;;5353103;23;656501;-72
2023/08/04 08:59:51;;;;;;;4.93;2.30;;;21.10;99.90;;;;;;5376789;23;656512;-72
2023/08/04 09:02:38;;;;;;;8.03;2.40;;;21.40;99.90;;;;;;5348388;23;656904;-72
2023/08/04 09:05:26;;;;;;;7.90;2.20;;;21.50;99.90;;;;;;5375869;23;657424;-72
2023/08/04 09:08:13;;;;;;;6.90;1.93;;;21.60;99.90;;;;;;5350591;23;656136;-73
2023/08/04 09:11:02;;;;;;;6.33;2.03;;;21.70;99.90;;;;;;5381142;23;656586;-72
2023/08/04 09:13:49;;;;;;;4.80;1.67;;;21.40;99.90;;;;;;5348598;23;657480;-72
2023/08/04 09:16:39;;;;;;;9.63;2.60;;;21.40;99.90;;;;;;5375207;23;656473;-71
2023/08/04 09:19:28;;;;;;;4.97;1.90;;;21.80;99.90;;;;;;5347992;23;656951;-71
2023/08/04 09:22:15;;;;;;;4.37;1.90;;;21.60;99.90;;;;;;5347467;23;657205;-72
2023/08/04 09:25:03;;;;;;;4.87;2.00;;;21.80;99.90;;;;;;5360619;23;656320;-72
2023/08/04 09:27:52;;;;;;;4.63;1.57;;;22.20;99.90;;;;;;5375575;23;656631;-71
2023/08/04 09:30:39;;;;;;;5.93;1.70;;;22.70;99.90;;;;;;5348270;23;657119;-73
2023/08/04 09:33:27;;;;;;;3.00;1.23;;;22.50;99.90;;;;;;5375398;23;656637;-73
2023/08/04 09:36:15;;;;;;;4.97;1.30;;;22.40;99.90;;;;;;5353055;23;656385;-73
2023/08/04 09:39:04;;;;;;;3.70;1.37;;;22.30;99.90;;;;;;5352588;23;656258;-72
2023/08/04 09:41:51;;;;;;;9.17;1.40;;;22.30;99.90;;;;;;5375515;23;656584;-73
2023/08/04 09:44:40;;;;;;;3.53;1.30;;;22.40;99.90;;;;;;5354172;23;656603;-73
2023/08/04 09:47:28;;;;;;;3.80;1.20;;;22.50;99.90;;;;;;5376491;23;657492;-73
2023/08/04 09:50:15;;;;;;;3.47;1.37;;;22.70;99.90;;;;;;5348021;23;657864;-73
2023/08/04 09:53:03;;;;;;;2.33;1.20;;;22.40;99.90;;;;;;5357373;23;657041;-73
2023/08/04 09:55:51;;;;;;;4.97;1.30;;;22.50;99.90;;;;;;5380350;23;657576;-73
2023/08/04 09:58:38;;;;;;;4.20;1.50;;;22.50;99.90;;;;;;5353255;23;656750;-73
2023/08/04 10:01:27;;;;;;;6.40;1.50;;;21.90;99.90;;;;;;5379865;23;656854;-72
2023/08/04 10:04:14;;;;;;;3.20;1.37;;;22.00;99.90;;;;;;5353531;23;657049;-73
2023/08/04 10:07:01;;;;;;;6.97;1.50;;;22.00;99.90;;;;;;5376391;23;656202;-73
2023/08/04 10:09:49;;;;;;;4.90;1.27;;;22.20;99.90;;;;;;5351505;23;657093;-73
2023/08/04 10:12:37;;;;;;;4.93;1.70;;;22.50;99.90;;;;;;5377632;23;656921;-73
2023/08/04 10:15:24;;;;;;;5.53;2.07;;;22.10;99.90;;;;;;5354335;23;656677;-74
2023/08/04 10:18:13;;;;;;;36.00;2.03;;;22.40;99.90;;;;;;5374750;23;657452;-72
2023/08/04 10:21:02;;;;;;;6.37;1.50;;;23.00;99.90;;;;;;5352450;23;658359;-73
2023/08/04 10:23:49;;;;;;;4.20;1.98;;;23.40;99.90;;;;;;5354865;23;656568;-72
2023/08/04 10:26:45;;;;;;;4.13;1.63;;;23.20;99.90;;;;;;5376536;23;656526;-73
2023/08/04 10:29:33;;;;;;;4.18;1.50;;;23.40;99.90;;;;;;5331392;23;656569;-72
2023/08/04 10:32:20;;;;;;;3.72;1.60;;;23.40;99.90;;;;;;5376940;23;657553;-73
2023/08/04 10:35:16;;;;;;;8.90;2.25;;;23.80;99.90;;;;;;5354561;23;656517;-72
2023/08/04 10:38:03;;;;;;;6.45;1.50;;;23.60;99.90;;;;;;5322058;23;656671;-73
2023/08/04 10:40:51;;;;;;;5.80;1.48;;;23.10;99.90;;;;;;5377606;23;657229;-73
2023/08/04 10:43:38;;;;;;;2.70;1.27;;;22.90;99.90;;;;;;5353899;23;656818;-72
2023/08/04 10:46:26;;;;;;;3.30;1.42;;;23.40;99.90;;;;;;5377336;23;657265;-72
2023/08/04 10:49:13;;;;;;;5.45;1.42;;;23.10;99.90;;;;;;5354027;23;656998;-72
2023/08/04 10:52:02;;;;;;;4.05;1.67;;;23.30;99.90;;;;;;5379898;23;657594;-73
2023/08/04 10:54:49;;;;;;;10.40;1.40;;;23.80;99.90;;;;;;5347509;23;658212;-72
2023/08/04 10:57:37;;;;;;;2.85;1.13;;;23.70;99.90;;;;;;5375009;23;657666;-72
2023/08/04 11:00:24;;;;;;;4.57;1.40;;;22.90;99.90;;;;;;5348902;23;657588;-72
2023/08/04 11:03:19;;;;;;;4.85;1.42;;;23.30;99.90;;;;;;5376200;23;656373;-72
2023/08/04 11:06:06;;;;;;;3.30;1.27;;;23.90;99.90;;;;;;5348888;23;656613;-73
2023/08/04 11:08:55;;;;;;;2.47;1.20;;;24.10;99.90;;;;;;5353708;23;656360;-72
2023/08/04 11:11:43;;;;;;;5.53;1.80;;;24.00;99.90;;;;;;5364520;23;656608;-72
2023/08/04 11:14:30;;;;;;;9.20;1.85;;;23.90;99.90;;;;;;5375886;23;657379;-73
2023/08/04 11:17:18;;;;;;;11.18;1.55;;;23.70;99.90;;;;;;5365156;23;656881;-72
2023/08/04 11:20:10;;;;;;;2.92;1.15;;;23.80;99.90;;;;;;5374916;23;659027;-71
2023/08/04 11:22:58;;;;;;;8.40;1.58;;;23.50;99.90;;;;;;5326008;23;656541;-70
2023/08/04 11:25:46;;;;;;;2.63;1.38;;;23.40;99.90;;;;;;5377655;23;657964;-72
2023/08/04 11:28:35;;;;;;;3.42;1.20;;;23.40;99.90;;;;;;5353964;23;656549;-71
2023/08/04 11:31:22;;;;;;;4.32;1.38;;;23.30;99.90;;;;;;5376477;23;657083;-71
2023/08/04 11:34:13;;;;;;;3.22;1.30;;;23.40;99.90;;;;;;5354090;23;656476;-71
2023/08/04 11:37:00;;;;;;;4.22;1.38;;;23.50;99.90;;;;;;5348865;23;656995;-72
2023/08/04 11:39:48;;;;;;;4.45;1.40;;;23.40;99.90;;;;;;5359152;23;656759;-71
2023/08/04 11:42:37;;;;;;;7.07;1.70;;;23.30;99.90;;;;;;5375713;23;658073;-71
2023/08/04 11:45:25;;;;;;;3.20;1.40;;;22.60;99.90;;;;;;5352128;23;657161;-72
2023/08/04 11:48:12;;;;;;;5.88;1.38;;;22.80;99.90;;;;;;5373242;23;656833;-70
2023/08/04 11:51:00;;;;;;;3.72;1.50;;;22.90;99.90;;;;;;5375851;23;658196;-71
2023/08/04 11:53:48;;;;;;;2.60;1.25;;;23.10;99.90;;;;;;5353724;23;656831;-71
2023/08/04 11:56:38;;;;;;;3.00;1.30;;;23.30;99.90;;;;;;5376746;23;657726;-70
2023/08/04 11:59:27;;;;;;;4.93;1.73;;;23.50;99.90;;;;;;5348485;23;658042;-70
2023/08/04 12:02:14;;;;;;;4.68;1.30;;;23.70;99.90;;;;;;5354205;23;656580;-70
2023/08/04 12:05:07;;;;;;;7.53;2.08;;;23.70;99.90;;;;;;5374398;23;656452;-71
2023/08/04 12:07:55;;;;;;;4.55;1.38;;;23.70;99.90;;;;;;5321026;23;657367;-70
2023/08/04 12:10:43;;;;;;;4.75;1.20;;;23.60;99.90;;;;;;5354778;23;657219;-71
2023/08/04 12:13:34;;;;;;;6.28;1.35;;;23.80;99.90;;;;;;5381030;23;658163;-70
2023/08/04 12:16:22;;;;;;;3.88;1.50;;;24.10;99.90;;;;;;5342199;23;656766;-72
2023/08/04 12:19:10;;;;;;;4.90;1.60;;;23.80;99.90;;;;;;5352112;23;657336;-72
2023/08/04 12:21:58;;;;;;;3.15;1.42;;;23.80;99.90;;;;;;5374961;23;656850;-71
2023/08/04 12:24:45;;;;;;;5.07;1.27;;;24.00;99.90;;;;;;5375717;23;657374;-71
2023/08/04 12:27:33;;;;;;;3.15;1.35;;;23.90;99.90;;;;;;5352919;23;656475;-71
2023/08/04 12:30:20;;;;;;;7.07;1.65;;;23.90;99.90;;;;;;5375030;23;658186;-71
2023/08/04 12:33:09;;;;;;;10.18;1.80;;;23.80;99.90;;;;;;5357848;23;656889;-71
2023/08/04 12:35:56;;;;;;;4.82;1.70;;;24.10;99.90;;;;;;5372355;23;657673;-70
2023/08/04 12:38:44;;;;;;;8.60;2.03;;;24.20;99.90;;;;;;5353020;23;657196;-70
2023/08/04 12:41:31;;;;;;;3.38;1.73;;;24.20;99.90;;;;;;5375721;23;657183;-70
2023/08/04 12:44:18;;;;;;;4.65;1.55;;;23.90;99.90;;;;;;5352588;23;657026;-70
2023/08/04 12:47:07;;;;;;;6.38;1.50;;;23.70;99.90;;;;;;5380083;23;657217;-70
2023/08/04 12:49:56;;;;;;;3.97;1.55;;;23.60;99.90;;;;;;5347759;23;658268;-70
2023/08/04 12:52:43;;;;;;;4.47;1.50;;;23.60;99.90;;;;;;5353379;23;656982;-71
2023/08/04 12:55:30;;;;;;;4.75;1.58;;;23.70;99.90;;;;;;5380858;23;657070;-70
2023/08/04 12:58:17;;;;;;;5.20;1.40;;;23.30;99.90;;;;;;5354687;23;656780;-71
2023/08/04 13:01:05;;;;;;;4.40;1.50;;;23.20;99.90;;;;;;5376726;23;657444;-70
2023/08/04 13:03:52;;;;;;;7.07;1.48;;;23.40;99.90;;;;;;5371361;23;656857;-71
2023/08/04 13:06:41;;;;;;;3.90;1.70;;;23.30;99.90;;;;;;5376331;23;657606;-70
2023/08/04 13:09:28;;;;;;;3.42;1.30;;;23.20;99.90;;;;;;5352243;23;656281;-71
2023/08/04 13:12:16;;;;;;;3.83;1.50;;;23.40;99.90;;;;;;5375479;23;658082;-71
2023/08/04 13:15:04;;;;;;;4.93;1.38;;;23.20;99.90;;;;;;5353551;23;656757;-71
2023/08/04 13:17:52;;;;;;;9.63;1.70;;;23.50;99.90;;;;;;5376900;23;656838;-71
2023/08/04 13:20:39;;;;;;;2.92;1.40;;;23.50;99.90;;;;;;5352566;23;657342;-71
2023/08/04 13:23:29;;;;;;;3.08;1.20;;;23.30;99.90;;;;;;5376173;23;656841;-71
2023/08/04 13:26:16;;;;;;;8.85;1.38;;;23.70;99.90;;;;;;5348926;23;656663;-71
2023/08/04 13:29:03;;;;;;;5.95;1.30;;;23.70;99.90;;;;;;5353375;23;656764;-71
2023/08/04 13:31:51;;;;;;;5.35;1.65;;;23.90;99.90;;;;;;5375530;23;656969;-71
2023/08/04 13:34:38;;;;;;;6.80;1.38;;;24.00;99.90;;;;;;5353808;23;656999;-71
2023/08/04 13:37:26;;;;;;;4.60;1.33;;;24.50;99.90;;;;;;5380312;23;656862;-73
2023/08/04 13:40:15;;;;;;;4.05;1.10;;;24.90;99.90;;;;;;5353390;23;656536;-72
2023/08/04 13:43:02;;;;;;;5.15;1.58;;;25.20;99.90;;;;;;5352379;23;656407;-72
2023/08/04 13:45:50;;;;;;;2.28;1.00;;;25.40;95.30;;;;;;5380313;23;657745;-72
2023/08/04 13:48:38;;;;;;;5.35;1.10;;;26.00;99.90;;;;;;5371283;23;656400;-72
2023/08/04 13:51:25;;;;;;;1.58;0.88;;;26.50;91.60;;;;;;5376418;23;658120;-72
2023/08/04 13:54:13;;;;;;;3.33;0.90;;;27.00;90.10;;;;;;5368909;23;656671;-73
2023/08/04 13:57:01;;;;;;;2.70;0.93;;;27.10;72.30;;;;;;5376492;23;657849;-72
2023/08/04 13:59:49;;;;;;;3.33;1.00;;;27.20;75.60;;;;;;5353657;23;657093;-72
2023/08/04 14:02:36;;;;;;;4.00;1.20;;;27.40;73.60;;;;;;5376074;23;657099;-72
2023/08/04 14:05:23;;;;;;;2.22;0.90;;;27.60;71.80;;;;;;5353786;23;656848;-72
2023/08/04 14:08:10;;;;;;;4.72;1.02;;;27.60;67.80;;;;;;5379710;23;656991;-72
2023/08/04 14:10:58;;;;;;;2.15;1.00;;;27.70;65.80;;;;;;5352396;23;656937;-72
2023/08/04 14:13:46;;;;;;;1.85;0.95;;;28.20;60.00;;;;;;5376156;23;657971;-72
2023/08/04 14:16:34;;;;;;;4.80;1.40;;;28.60;55.60;;;;;;5349526;23;657480;-73
2023/08/04 14:19:21;;;;;;;2.03;0.95;;;28.20;56.80;;;;;;5376932;23;656632;-72